Time;durP1;ratioP1;P1;durP2;ratioP2;P2;SDS_P1;SDS_P2;PMS_P1;PMS_P2;Temp;Humidity;BMP_temperature;BMP_pressure;BME280_temperature;BME280_humidity;BME280_pressure;Samples;Min_cycle;Max_cycle;Signal;HPM_P1;HPM_P2
2021/10/31 00:01:24;;;;;;;3.97;3.57;;;;;;;;;;4959857;28;20462;-79
2021/10/31 00:03:54;;;;;;;3.83;3.43;;;;;;;;;;4972527;28;20814;-81
2021/10/31 00:06:21;;;;;;;4.40;4.00;;;;;;;;;;4972140;28;20445;-79
2021/10/31 00:08:48;;;;;;;5.67;4.47;;;;;;;;;;4972552;28;20462;-77
2021/10/31 00:11:16;;;;;;;4.80;4.13;;;;;;;;;;4963021;28;20540;-79
2021/10/31 00:13:45;;;;;;;5.07;3.93;;;;;;;;;;4953280;28;20451;-77
2021/10/31 00:16:12;;;;;;;4.50;4.10;;;;;;;;;;4943777;28;20442;-80
2021/10/31 00:18:39;;;;;;;4.97;3.70;;;;;;;;;;4956907;28;20487;-78
2021/10/31 00:21:06;;;;;;;5.07;3.37;;;;;;;;;;4967684;28;20471;-80
2021/10/31 00:23:34;;;;;;;5.00;4.03;;;;;;;;;;4965176;28;20466;-79
2021/10/31 00:26:01;;;;;;;4.50;3.63;;;;;;;;;;4969572;28;20461;-79
2021/10/31 00:28:28;;;;;;;5.13;3.63;;;;;;;;;;4952034;28;20496;-77
2021/10/31 00:30:57;;;;;;;5.17;3.83;;;;;;;;;;4960658;28;20466;-78
2021/10/31 00:33:24;;;;;;;3.87;3.47;;;;;;;;;;4954979;28;20472;-80
2021/10/31 00:35:51;;;;;;;5.17;3.70;;;;;;;;;;4961335;28;20503;-80
2021/10/31 00:38:19;;;;;;;5.37;4.03;;;;;;;;;;4972018;28;20806;-80
2021/10/31 00:40:46;;;;;;;6.80;3.63;;;;;;;;;;4970556;28;20480;-77
2021/10/31 00:43:13;;;;;;;4.70;3.50;;;;;;;;;;4955427;28;20476;-79
2021/10/31 00:45:41;;;;;;;4.10;3.70;;;;;;;;;;4961280;28;20441;-79
2021/10/31 00:48:10;;;;;;;5.50;4.10;;;;;;;;;;4958286;28;20488;-79
2021/10/31 00:50:37;;;;;;;4.60;4.10;;;;;;;;;;4971765;28;20495;-79
2021/10/31 00:53:04;;;;;;;6.30;4.60;;;;;;;;;;4972626;28;20455;-79
2021/10/31 00:55:32;;;;;;;5.83;4.60;;;;;;;;;;4973631;28;20461;-78
2021/10/31 00:58:03;;;;;;;4.40;4.00;;;;;;;;;;4975600;28;20919;-78
2021/10/31 01:00:31;;;;;;;7.10;4.80;;;;;;;;;;4965705;28;20926;-77
2021/10/31 01:02:58;;;;;;;5.13;4.33;;;;;;;;;;4974310;28;20449;-79
2021/10/31 01:05:31;;;;;;;5.90;4.97;;;;;;;;;;4974199;28;20541;-81
2021/10/31 01:08:11;;;;;;;5.00;4.20;;;;;;;;;;4959515;28;20996;-79
2021/10/31 01:13:47;;;;;;;4.87;4.00;;;;;;;;;;4957717;29;20493;-79
2021/10/31 01:16:20;;;;;;;4.47;4.07;;;;;;;;;;4950895;28;20445;-78
2021/10/31 01:18:58;;;;;;;5.60;4.03;;;;;;;;;;4966235;28;21006;-79
2021/10/31 01:21:29;;;;;;;5.93;4.80;;;;;;;;;;4968254;28;20555;-79
2021/10/31 01:24:04;;;;;;;5.13;4.50;;;;;;;;;;4968573;28;20476;-79
2021/10/31 01:26:41;;;;;;;5.20;4.10;;;;;;;;;;4955447;28;20457;-79
2021/10/31 01:29:20;;;;;;;5.67;4.60;;;;;;;;;;4959552;28;20506;-77
2021/10/31 01:31:55;;;;;;;4.20;3.80;;;;;;;;;;4958207;28;20484;-80
2021/10/31 01:34:24;;;;;;;4.90;4.03;;;;;;;;;;4951786;29;20472;-79
2021/10/31 01:37:00;;;;;;;4.80;3.60;;;;;;;;;;4955284;28;20471;-79
2021/10/31 01:39:30;;;;;;;5.77;4.20;;;;;;;;;;4970699;28;20482;-80
2021/10/31 01:42:04;;;;;;;4.47;3.80;;;;;;;;;;4971775;28;20472;-80
2021/10/31 01:44:36;;;;;;;7.20;5.33;;;;;;;;;;4962961;28;20456;-80
2021/10/31 01:47:07;;;;;;;4.57;4.00;;;;;;;;;;4959718;28;20445;-80
2021/10/31 01:49:41;;;;;;;4.70;4.10;;;;;;;;;;4962572;28;20492;-80
2021/10/31 01:52:17;;;;;;;5.47;4.10;;;;;;;;;;4954387;28;20455;-79
2021/10/31 01:54:46;;;;;;;4.87;4.37;;;;;;;;;;4966872;28;20456;-81
2021/10/31 01:57:17;;;;;;;6.43;4.47;;;;;;;;;;4954524;28;20463;-78
2021/10/31 01:59:46;;;;;;;3.83;3.43;;;;;;;;;;4969606;28;20848;-80
2021/10/31 02:02:14;;;;;;;3.43;3.13;;;;;;;;;;4940772;28;20460;-78
2021/10/31 02:04:43;;;;;;;5.00;4.50;;;;;;;;;;4964513;28;20449;-79
2021/10/31 02:07:12;;;;;;;4.90;4.40;;;;;;;;;;4967038;28;21632;-81
2021/10/31 02:09:41;;;;;;;4.20;3.80;;;;;;;;;;4960806;28;20472;-80
2021/10/31 02:12:14;;;;;;;5.80;4.50;;;;;;;;;;4973815;28;20449;-81
2021/10/31 02:14:41;;;;;;;4.80;4.23;;;;;;;;;;4968809;28;20836;-79
2021/10/31 02:17:08;;;;;;;4.60;3.97;;;;;;;;;;4958967;28;20460;-80
2021/10/31 02:19:39;;;;;;;4.97;4.40;;;;;;;;;;4955543;28;20462;-78
2021/10/31 02:22:08;;;;;;;4.00;3.70;;;;;;;;;;4948309;28;20460;-80
2021/10/31 02:24:37;;;;;;;4.40;4.00;;;;;;;;;;4965389;28;20758;-79
2021/10/31 02:27:12;;;;;;;5.00;3.90;;;;;;;;;;4965229;28;20496;-79
2021/10/31 02:29:45;;;;;;;5.47;4.97;;;;;;;;;;4965848;28;20481;-79
2021/10/31 02:32:12;;;;;;;5.30;4.37;;;;;;;;;;4940697;28;20465;-80
2021/10/31 02:34:40;;;;;;;4.90;4.50;;;;;;;;;;4965774;28;20937;-78
2021/10/31 02:37:07;;;;;;;5.63;4.30;;;;;;;;;;4954495;28;20953;-80
2021/10/31 02:39:34;;;;;;;4.73;4.33;;;;;;;;;;4968630;28;20488;-79
2021/10/31 02:42:03;;;;;;;6.53;5.93;;;;;;;;;;4966721;28;20470;-79
2021/10/31 02:44:30;;;;;;;6.07;5.47;;;;;;;;;;4972464;28;20475;-77
2021/10/31 02:46:58;;;;;;;5.57;5.00;;;;;;;;;;4962456;28;20475;-79
2021/10/31 02:49:26;;;;;;;5.50;4.97;;;;;;;;;;4968051;28;20484;-77
2021/10/31 02:51:56;;;;;;;5.37;4.73;;;;;;;;;;4973293;28;20476;-79
2021/10/31 02:54:25;;;;;;;5.30;4.60;;;;;;;;;;4974718;28;20800;-79
2021/10/31 02:57:00;;;;;;;4.70;4.27;;;;;;;;;;4974848;28;20445;-79
2021/10/31 03:00:04;;;;;;;7.10;4.87;;;;;;;;;;4973878;28;20479;-79
2021/10/31 03:02:34;;;;;;;5.30;4.30;;;;;;;;;;4959336;28;20548;-78
2021/10/31 03:05:01;;;;;;;5.37;4.50;;;;;;;;;;4967926;28;20807;-78
2021/10/31 03:07:29;;;;;;;5.60;5.00;;;;;;;;;;4969014;28;20444;-80
2021/10/31 03:09:56;;;;;;;5.07;4.57;;;;;;;;;;4962899;28;20481;-78
2021/10/31 03:12:33;;;;;;;4.93;4.27;;;;;;;;;;4972582;28;20807;-80
2021/10/31 03:15:00;;;;;;;5.40;4.70;;;;;;;;;;4954261;28;20468;-79
2021/10/31 03:17:27;;;;;;;4.80;4.27;;;;;;;;;;4954858;29;20457;-78
2021/10/31 03:19:59;;;;;;;5.87;5.27;;;;;;;;;;4958612;29;20980;-78
2021/10/31 03:22:26;;;;;;;6.17;5.40;;;;;;;;;;4963733;28;21147;-82
2021/10/31 03:24:56;;;;;;;6.17;5.57;;;;;;;;;;4978779;28;20449;-79
2021/10/31 03:27:26;;;;;;;5.33;4.60;;;;;;;;;;4979087;28;20965;-81
2021/10/31 03:33:00;;;;;;;5.27;4.70;;;;;;;;;;4953576;28;20441;-80
2021/10/31 03:35:55;;;;;;;5.67;5.00;;;;;;;;;;4974224;28;21036;-81
2021/10/31 03:38:25;;;;;;;9.10;5.33;;;;;;;;;;4970424;28;20456;-78
2021/10/31 03:40:52;;;;;;;6.07;5.40;;;;;;;;;;4973710;28;20473;-79
2021/10/31 03:43:20;;;;;;;5.97;5.37;;;;;;;;;;4965163;28;20465;-79
2021/10/31 03:45:50;;;;;;;6.70;6.00;;;;;;;;;;4959427;28;20456;-79
2021/10/31 03:48:17;;;;;;;6.17;5.33;;;;;;;;;;4965849;28;20680;-79
2021/10/31 03:50:48;;;;;;;6.47;4.83;;;;;;;;;;4973117;28;20480;-80
2021/10/31 03:53:15;;;;;;;6.60;5.30;;;;;;;;;;4970968;28;21102;-80
2021/10/31 03:55:42;;;;;;;6.23;5.67;;;;;;;;;;4973252;28;20459;-82
2021/10/31 03:58:12;;;;;;;5.60;5.10;;;;;;;;;;4970023;28;20485;-80
2021/10/31 04:00:39;;;;;;;5.80;5.20;;;;;;;;;;4962368;28;20480;-78
2021/10/31 04:03:06;;;;;;;8.10;5.93;;;;;;;;;;4961158;28;20527;-79
2021/10/31 04:05:34;;;;;;;7.63;5.43;;;;;;;;;;4969936;28;20441;-78
2021/10/31 04:08:02;;;;;;;7.17;6.33;;;;;;;;;;4973103;28;20449;-78
2021/10/31 04:10:33;;;;;;;6.13;4.83;;;;;;;;;;4972888;28;20591;-80
2021/10/31 04:13:00;;;;;;;6.50;5.90;;;;;;;;;;4973341;28;20445;-79
2021/10/31 04:15:27;;;;;;;6.17;5.23;;;;;;;;;;4968041;28;20597;-81
2021/10/31 04:17:55;;;;;;;6.33;5.57;;;;;;;;;;4961120;28;20445;-78
2021/10/31 04:20:22;;;;;;;6.90;5.90;;;;;;;;;;4964252;28;20484;-78
2021/10/31 04:22:50;;;;;;;6.00;5.40;;;;;;;;;;4972794;28;20532;-79
2021/10/31 04:25:18;;;;;;;7.00;5.63;;;;;;;;;;4970940;28;20814;-80
2021/10/31 04:27:45;;;;;;;6.33;5.73;;;;;;;;;;4972439;28;20448;-79
2021/10/31 04:30:13;;;;;;;6.77;5.40;;;;;;;;;;4971317;28;20506;-79
2021/10/31 04:32:41;;;;;;;7.00;5.93;;;;;;;;;;4947162;28;20442;-80
2021/10/31 04:35:08;;;;;;;6.37;5.57;;;;;;;;;;4962237;28;20433;-80
2021/10/31 04:37:38;;;;;;;7.37;5.10;;;;;;;;;;4964506;28;20452;-78
2021/10/31 04:40:07;;;;;;;5.63;5.10;;;;;;;;;;4970590;28;20599;-78
2021/10/31 04:42:35;;;;;;;6.30;5.37;;;;;;;;;;4972335;28;20436;-79
2021/10/31 04:45:03;;;;;;;6.47;5.63;;;;;;;;;;4971214;28;20461;-78
2021/10/31 04:47:30;;;;;;;5.50;4.90;;;;;;;;;;4969392;28;20568;-79
2021/10/31 04:49:57;;;;;;;6.83;4.53;;;;;;;;;;4959359;28;20500;-78
2021/10/31 04:52:24;;;;;;;6.20;5.13;;;;;;;;;;4959089;28;20461;-80
2021/10/31 04:54:52;;;;;;;6.70;5.30;;;;;;;;;;4972224;28;20452;-80
2021/10/31 04:57:19;;;;;;;5.70;4.40;;;;;;;;;;4972161;28;20447;-80
2021/10/31 04:59:47;;;;;;;5.50;4.77;;;;;;;;;;4971129;28;20484;-80
2021/10/31 05:02:15;;;;;;;5.90;5.40;;;;;;;;;;4972839;28;20464;-78
2021/10/31 05:04:42;;;;;;;6.00;5.40;;;;;;;;;;4963672;28;20473;-79
2021/10/31 05:07:10;;;;;;;7.20;5.10;;;;;;;;;;4967859;28;20460;-79
2021/10/31 05:09:37;;;;;;;5.40;4.57;;;;;;;;;;4971166;28;20873;-78
2021/10/31 05:12:04;;;;;;;8.03;5.77;;;;;;;;;;4959900;28;20945;-80
2021/10/31 05:14:31;;;;;;;6.30;5.40;;;;;;;;;;4965803;28;20444;-80
2021/10/31 05:17:00;;;;;;;6.57;5.20;;;;;;;;;;4967999;28;20962;-79
2021/10/31 05:19:27;;;;;;;7.13;5.73;;;;;;;;;;4963648;28;20504;-79
2021/10/31 05:21:55;;;;;;;6.37;5.67;;;;;;;;;;4971907;28;20789;-80
2021/10/31 05:24:22;;;;;;;4.80;4.37;;;;;;;;;;4970727;28;20504;-82
2021/10/31 05:26:49;;;;;;;6.63;5.43;;;;;;;;;;4973922;28;20812;-80
2021/10/31 05:29:16;;;;;;;6.07;5.00;;;;;;;;;;4972387;28;20488;-80
2021/10/31 05:31:43;;;;;;;8.10;5.47;;;;;;;;;;4956016;28;20455;-80
2021/10/31 05:34:12;;;;;;;7.20;5.33;;;;;;;;;;4960061;28;20438;-80
2021/10/31 05:36:39;;;;;;;6.00;5.33;;;;;;;;;;4965318;28;20511;-79
2021/10/31 05:39:07;;;;;;;5.33;4.63;;;;;;;;;;4971579;28;20468;-79
2021/10/31 05:41:34;;;;;;;6.03;5.43;;;;;;;;;;4965779;28;20449;-78
2021/10/31 05:44:01;;;;;;;7.07;6.30;;;;;;;;;;4962238;28;20467;-78
2021/10/31 05:46:31;;;;;;;5.60;5.03;;;;;;;;;;4971842;28;20468;-80
2021/10/31 05:48:58;;;;;;;6.37;5.13;;;;;;;;;;4955724;28;20499;-79
2021/10/31 05:51:30;;;;;;;7.20;4.60;;;;;;;;;;4961772;28;20457;-79
2021/10/31 05:53:57;;;;;;;6.80;5.20;;;;;;;;;;4971573;28;20448;-79
2021/10/31 05:56:24;;;;;;;6.57;5.40;;;;;;;;;;4959830;28;20463;-79
2021/10/31 05:58:52;;;;;;;6.67;4.90;;;;;;;;;;4968763;28;20982;-80
2021/10/31 06:01:19;;;;;;;5.57;4.80;;;;;;;;;;4971401;28;20468;-81
2021/10/31 06:03:46;;;;;;;5.90;5.20;;;;;;;;;;4968709;28;20461;-79
2021/10/31 06:06:13;;;;;;;5.10;4.60;;;;;;;;;;4959318;28;20450;-79
2021/10/31 06:08:55;;;;;;;10.50;5.40;;;;;;;;;;4954677;28;20464;-80
2021/10/31 06:11:23;;;;;;;5.70;5.20;;;;;;;;;;4952508;29;20525;-78
2021/10/31 06:13:50;;;;;;;5.53;5.03;;;;;;;;;;4951829;29;20446;-81
2021/10/31 06:16:18;;;;;;;5.20;4.70;;;;;;;;;;4959532;28;20476;-79
2021/10/31 06:18:46;;;;;;;5.77;4.67;;;;;;;;;;4965006;28;20477;-82
2021/10/31 06:21:13;;;;;;;5.93;5.33;;;;;;;;;;4963512;28;20437;-79
2021/10/31 06:23:40;;;;;;;6.30;5.07;;;;;;;;;;4970677;28;20468;-79
2021/10/31 06:26:09;;;;;;;5.70;4.83;;;;;;;;;;4974753;28;20545;-80
2021/10/31 06:28:36;;;;;;;5.60;4.33;;;;;;;;;;4967299;28;20453;-81
2021/10/31 06:31:03;;;;;;;5.10;4.60;;;;;;;;;;4966591;28;20468;-81
2021/10/31 06:33:31;;;;;;;6.80;4.60;;;;;;;;;;4975385;28;20815;-77
2021/10/31 06:35:58;;;;;;;5.50;4.63;;;;;;;;;;4960656;28;21004;-79
2021/10/31 06:38:25;;;;;;;5.10;4.47;;;;;;;;;;4963613;28;20823;-78
2021/10/31 06:40:52;;;;;;;4.90;4.40;;;;;;;;;;4968368;28;20495;-77
2021/10/31 06:43:21;;;;;;;5.27;4.77;;;;;;;;;;4974351;28;20459;-79
2021/10/31 06:45:48;;;;;;;6.00;5.27;;;;;;;;;;4973104;28;20457;-78
2021/10/31 06:48:15;;;;;;;4.70;4.20;;;;;;;;;;4974306;28;20448;-79
2021/10/31 06:50:43;;;;;;;5.30;4.80;;;;;;;;;;4965494;28;20512;-77
2021/10/31 06:53:10;;;;;;;5.00;4.50;;;;;;;;;;4962910;28;20452;-78
2021/10/31 06:55:37;;;;;;;4.10;3.70;;;;;;;;;;4955070;29;20456;-78
2021/10/31 06:58:04;;;;;;;4.67;4.20;;;;;;;;;;4960381;28;20962;-78
2021/10/31 07:00:33;;;;;;;4.97;4.33;;;;;;;;;;4956967;28;20484;-77
2021/10/31 07:03:00;;;;;;;5.77;4.20;;;;;;;;;;4959437;28;20978;-79
2021/10/31 07:05:27;;;;;;;5.30;4.63;;;;;;;;;;4971091;28;20969;-80
2021/10/31 07:07:55;;;;;;;5.33;4.43;;;;;;;;;;4967710;28;20479;-77
2021/10/31 07:10:22;;;;;;;4.80;4.30;;;;;;;;;;4973138;28;20484;-78
2021/10/31 07:12:49;;;;;;;8.63;4.97;;;;;;;;;;4965991;28;20452;-80
2021/10/31 07:15:17;;;;;;;4.63;4.23;;;;;;;;;;4960797;28;20460;-79
2021/10/31 07:17:46;;;;;;;5.50;4.57;;;;;;;;;;4969839;28;20465;-80
2021/10/31 07:20:14;;;;;;;5.30;4.37;;;;;;;;;;4973938;28;20480;-79
2021/10/31 07:22:41;;;;;;;4.40;4.00;;;;;;;;;;4961447;28;21068;-79
2021/10/31 07:25:10;;;;;;;5.30;4.47;;;;;;;;;;4971783;28;20460;-78
2021/10/31 07:27:38;;;;;;;4.37;4.00;;;;;;;;;;4973851;28;20459;-80
2021/10/31 07:30:06;;;;;;;4.90;3.93;;;;;;;;;;4974536;28;20495;-79
2021/10/31 07:32:33;;;;;;;5.10;4.40;;;;;;;;;;4975918;28;20460;-80
2021/10/31 07:35:02;;;;;;;6.73;4.50;;;;;;;;;;4964910;28;20550;-78
2021/10/31 07:37:30;;;;;;;5.97;3.90;;;;;;;;;;4961940;28;20450;-78
2021/10/31 07:39:58;;;;;;;4.43;4.00;;;;;;;;;;4961452;28;20568;-76
2021/10/31 07:42:28;;;;;;;4.27;3.87;;;;;;;;;;4973963;28;20449;-77
2021/10/31 07:44:56;;;;;;;4.50;4.10;;;;;;;;;;4968787;28;20974;-76
2021/10/31 07:47:23;;;;;;;5.50;4.50;;;;;;;;;;4974016;28;20445;-78
2021/10/31 07:49:51;;;;;;;8.43;5.03;;;;;;;;;;4973042;28;20499;-80
2021/10/31 07:52:20;;;;;;;5.50;5.00;;;;;;;;;;4966302;28;20909;-76
2021/10/31 07:54:47;;;;;;;6.27;3.80;;;;;;;;;;4961702;28;20962;-77
2021/10/31 07:57:15;;;;;;;5.33;4.83;;;;;;;;;;4970839;28;21024;-76
2021/10/31 07:59:42;;;;;;;6.27;4.53;;;;;;;;;;4956113;28;20471;-76
2021/10/31 08:02:09;;;;;;;5.87;4.67;;;;;;;;;;4971585;28;20465;-77
2021/10/31 08:04:37;;;;;;;4.93;4.47;;;;;;;;;;4967986;28;21963;-80
2021/10/31 08:07:04;;;;;;;4.47;4.07;;;;;;;;;;4966005;28;20468;-78
2021/10/31 08:09:33;;;;;;;4.70;4.30;;;;;;;;;;4961180;28;20484;-79
2021/10/31 08:12:00;;;;;;;9.07;4.23;;;;;;;;;;4962212;28;20970;-77
2021/10/31 08:14:28;;;;;;;4.47;4.07;;;;;;;;;;4973177;28;20872;-80
2021/10/31 08:16:55;;;;;;;4.90;4.50;;;;;;;;;;4973300;28;20448;-79
2021/10/31 08:19:24;;;;;;;6.57;5.40;;;;;;;;;;4971299;28;21966;-79
2021/10/31 08:21:52;;;;;;;5.50;4.70;;;;;;;;;;4973335;28;20465;-79
2021/10/31 08:24:19;;;;;;;6.33;4.10;;;;;;;;;;4965542;28;20539;-80
2021/10/31 08:26:48;;;;;;;4.17;3.73;;;;;;;;;;4961215;28;20529;-84
2021/10/31 08:29:18;;;;;;;5.60;4.97;;;;;;;;;;4939653;28;20494;-79
2021/10/31 08:31:49;;;;;;;5.17;4.40;;;;;;;;;;4952746;28;20464;-76
2021/10/31 08:34:17;;;;;;;5.60;4.77;;;;;;;;;;4972771;28;20476;-77
2021/10/31 08:36:44;;;;;;;4.80;4.40;;;;;;;;;;4971546;28;20457;-78
2021/10/31 08:39:11;;;;;;;6.10;4.90;;;;;;;;;;4962881;28;20477;-76
2021/10/31 08:41:39;;;;;;;5.60;4.73;;;;;;;;;;4960424;28;20552;-78
2021/10/31 08:44:07;;;;;;;5.30;4.80;;;;;;;;;;4954130;28;20453;-80
2021/10/31 08:46:35;;;;;;;5.37;4.87;;;;;;;;;;4970701;28;20457;-81
2021/10/31 08:49:02;;;;;;;6.23;4.73;;;;;;;;;;4971292;28;20802;-80
2021/10/31 08:51:30;;;;;;;5.33;4.70;;;;;;;;;;4955330;28;20523;-80
2021/10/31 08:53:58;;;;;;;4.20;3.90;;;;;;;;;;4959209;28;20465;-79
2021/10/31 08:56:25;;;;;;;4.50;3.90;;;;;;;;;;4960834;28;20491;-77
2021/10/31 08:58:52;;;;;;;5.43;4.80;;;;;;;;;;4970584;28;20480;-80
2021/10/31 09:01:21;;;;;;;4.53;3.73;;;;;;;;;;4972906;28;20528;-81
2021/10/31 09:03:52;;;;;;;4.30;3.80;;;;;;;;;;4967165;28;20457;-81
2021/10/31 09:06:19;;;;;;;4.73;4.27;;;;;;;;;;4972843;28;20523;-81
2021/10/31 09:08:46;;;;;;;6.60;4.50;;;;;;;;;;4971700;28;20468;-80
2021/10/31 09:11:13;;;;;;;5.20;4.77;;;;;;;;;;4976968;28;20495;-79
2021/10/31 09:13:41;;;;;;;4.83;4.43;;;;;;;;;;4972863;28;20445;-78
2021/10/31 09:16:09;;;;;;;4.60;4.20;;;;;;;;;;4965547;28;20461;-77
2021/10/31 09:18:38;;;;;;;4.33;3.93;;;;;;;;;;4960989;28;20461;-78
2021/10/31 09:21:06;;;;;;;6.33;3.90;;;;;;;;;;4972621;28;20457;-78
2021/10/31 09:23:34;;;;;;;4.83;4.30;;;;;;;;;;4974354;28;20452;-79
2021/10/31 09:26:01;;;;;;;4.00;3.70;;;;;;;;;;4952688;29;20813;-78
2021/10/31 09:28:29;;;;;;;5.80;4.47;;;;;;;;;;4936247;28;20460;-79
2021/10/31 09:30:57;;;;;;;6.10;4.20;;;;;;;;;;4966381;28;20517;-79
2021/10/31 09:33:24;;;;;;;8.53;4.40;;;;;;;;;;4965727;28;20468;-77
2021/10/31 09:35:56;;;;;;;4.87;4.13;;;;;;;;;;4971056;28;20460;-79
2021/10/31 09:38:26;;;;;;;5.00;4.50;;;;;;;;;;4966729;28;20538;-80
2021/10/31 09:40:53;;;;;;;6.10;4.90;;;;;;;;;;4959578;28;20487;-80
2021/10/31 09:43:27;;;;;;;5.37;4.80;;;;;;;;;;4969608;28;20508;-78
2021/10/31 09:45:54;;;;;;;6.50;4.67;;;;;;;;;;4966856;28;20461;-79
2021/10/31 09:48:21;;;;;;;6.00;4.43;;;;;;;;;;4966624;28;20480;-79
2021/10/31 09:50:49;;;;;;;6.67;5.20;;;;;;;;;;4970742;28;20501;-81
2021/10/31 09:53:18;;;;;;;5.30;4.87;;;;;;;;;;4954183;28;20473;-80
2021/10/31 09:55:47;;;;;;;5.53;4.93;;;;;;;;;;4941892;28;20444;-78
2021/10/31 09:58:20;;;;;;;7.80;4.87;;;;;;;;;;4957635;28;20465;-81
2021/10/31 10:00:48;;;;;;;5.63;5.03;;;;;;;;;;4954319;28;20493;-81
2021/10/31 10:03:26;;;;;;;6.03;5.43;;;;;;;;;;4970283;28;20446;-79
2021/10/31 10:06:08;;;;;;;5.80;5.20;;;;;;;;;;4938327;28;20836;-78
2021/10/31 10:08:37;;;;;;;6.20;5.60;;;;;;;;;;4937782;29;20475;-79
2021/10/31 10:11:04;;;;;;;6.33;5.20;;;;;;;;;;4957128;28;20485;-77
2021/10/31 10:13:33;;;;;;;6.70;5.57;;;;;;;;;;4959812;28;20524;-80
2021/10/31 10:16:15;;;;;;;6.13;5.53;;;;;;;;;;4937747;28;20485;-77
2021/10/31 10:18:42;;;;;;;5.63;5.03;;;;;;;;;;4941966;28;20478;-79
2021/10/31 10:21:15;;;;;;;6.17;5.57;;;;;;;;;;4952326;28;20486;-81
2021/10/31 10:23:52;;;;;;;5.40;4.53;;;;;;;;;;4968556;28;20458;-78
2021/10/31 10:26:24;;;;;;;5.63;4.40;;;;;;;;;;4955969;28;20469;-79
2021/10/31 10:28:51;;;;;;;5.50;5.00;;;;;;;;;;4942393;28;20832;-81
2021/10/31 10:31:20;;;;;;;5.33;4.93;;;;;;;;;;4970158;28;20502;-82
2021/10/31 10:33:48;;;;;;;4.97;4.43;;;;;;;;;;4968384;28;20766;-81
2021/10/31 10:36:16;;;;;;;6.10;4.87;;;;;;;;;;4952312;28;21040;-82
2021/10/31 10:38:44;;;;;;;5.90;5.33;;;;;;;;;;4964949;28;20555;-80
2021/10/31 10:41:33;;;;;;;4.60;4.10;;;;;;;;;;4969660;28;20818;-78
2021/10/31 10:44:16;;;;;;;6.80;4.77;;;;;;;;;;4945078;28;20827;-78
2021/10/31 10:46:43;;;;;;;7.30;4.67;;;;;;;;;;4965518;28;20452;-80
2021/10/31 10:49:11;;;;;;;5.40;4.47;;;;;;;;;;4970423;28;20472;-78
2021/10/31 10:51:39;;;;;;;4.57;4.10;;;;;;;;;;4970730;28;20859;-78
2021/10/31 10:54:09;;;;;;;4.57;4.07;;;;;;;;;;4966434;28;20465;-78
2021/10/31 10:56:38;;;;;;;5.97;4.40;;;;;;;;;;4971127;28;20475;-80
2021/10/31 10:59:05;;;;;;;4.60;4.13;;;;;;;;;;4957818;28;20561;-80
2021/10/31 11:01:32;;;;;;;3.73;3.43;;;;;;;;;;4963925;28;20800;-81
2021/10/31 11:03:59;;;;;;;4.10;3.47;;;;;;;;;;4975067;28;20460;-79
2021/10/31 11:06:28;;;;;;;5.30;4.30;;;;;;;;;;4967536;28;20460;-77
2021/10/31 11:09:10;;;;;;;4.20;3.80;;;;;;;;;;4974410;28;20472;-80
2021/10/31 11:11:38;;;;;;;4.67;4.27;;;;;;;;;;4955609;28;20499;-78
2021/10/31 11:14:06;;;;;;;4.67;3.90;;;;;;;;;;4970012;28;20838;-79
2021/10/31 11:16:33;;;;;;;3.93;3.53;;;;;;;;;;4966800;28;20472;-80
2021/10/31 11:19:01;;;;;;;4.60;4.20;;;;;;;;;;4965218;28;20484;-79
2021/10/31 11:21:28;;;;;;;4.07;3.67;;;;;;;;;;4959310;28;20984;-78
2021/10/31 11:23:57;;;;;;;5.00;3.90;;;;;;;;;;4961923;28;20464;-79
2021/10/31 11:26:25;;;;;;;4.03;3.63;;;;;;;;;;4969396;28;20802;-80
2021/10/31 11:28:54;;;;;;;3.97;3.67;;;;;;;;;;4973798;28;20471;-80
2021/10/31 11:31:21;;;;;;;4.53;4.10;;;;;;;;;;4965590;28;21151;-79
2021/10/31 11:33:50;;;;;;;3.80;3.50;;;;;;;;;;4950526;28;20460;-77
2021/10/31 11:36:19;;;;;;;6.30;4.63;;;;;;;;;;4966316;28;20883;-80
2021/10/31 11:38:48;;;;;;;6.60;4.23;;;;;;;;;;4944363;28;20893;-79
2021/10/31 11:41:17;;;;;;;4.40;4.00;;;;;;;;;;4963173;28;20464;-81
2021/10/31 11:43:50;;;;;;;4.30;3.90;;;;;;;;;;4973820;28;20455;-79
2021/10/31 11:46:19;;;;;;;3.90;3.60;;;;;;;;;;4955364;28;20508;-77
2021/10/31 11:49:00;;;;;;;6.17;4.47;;;;;;;;;;4973883;28;20456;-81
2021/10/31 11:51:39;;;;;;;3.90;3.50;;;;;;;;;;4974899;28;20876;-79
2021/10/31 11:54:11;;;;;;;5.20;3.83;;;;;;;;;;4963779;28;20461;-78
2021/10/31 11:56:40;;;;;;;4.70;3.77;;;;;;;;;;4956988;28;20468;-80
2021/10/31 11:59:11;;;;;;;5.80;4.80;;;;;;;;;;4961710;28;20551;-79
2021/10/31 12:01:41;;;;;;;4.37;3.97;;;;;;;;;;4963885;28;20515;-82
2021/10/31 12:04:10;;;;;;;4.83;3.60;;;;;;;;;;4956387;28;20806;-82
2021/10/31 12:06:52;;;;;;;4.37;3.97;;;;;;;;;;4966853;28;20927;-80
2021/10/31 12:09:23;;;;;;;4.27;3.47;;;;;;;;;;4958515;28;20849;-80
2021/10/31 12:12:05;;;;;;;4.13;3.40;;;;;;;;;;4953835;28;20484;-80
2021/10/31 12:14:47;;;;;;;4.63;3.33;;;;;;;;;;4967488;28;20469;-79
2021/10/31 12:17:16;;;;;;;3.53;3.10;;;;;;;;;;4955132;29;20498;-80
2021/10/31 12:19:44;;;;;;;6.00;3.50;;;;;;;;;;4941580;28;20484;-80
2021/10/31 12:22:12;;;;;;;3.77;3.07;;;;;;;;;;4961236;28;20806;-79
2021/10/31 12:24:40;;;;;;;4.33;2.93;;;;;;;;;;4942370;28;20447;-79
2021/10/31 12:27:11;;;;;;;3.97;3.40;;;;;;;;;;4969891;28;20457;-81
2021/10/31 12:29:40;;;;;;;3.33;2.90;;;;;;;;;;4955653;28;20677;-79
2021/10/31 12:32:15;;;;;;;4.20;3.10;;;;;;;;;;4971524;28;20491;-80
2021/10/31 12:34:45;;;;;;;5.07;2.97;;;;;;;;;;4970003;28;20564;-80
2021/10/31 12:37:26;;;;;;;3.10;2.80;;;;;;;;;;4960474;28;20469;-80
2021/10/31 12:39:56;;;;;;;5.50;2.93;;;;;;;;;;4952471;28;20477;-78
2021/10/31 12:42:25;;;;;;;3.27;2.97;;;;;;;;;;4955708;28;20427;-79
2021/10/31 12:44:55;;;;;;;2.87;2.57;;;;;;;;;;4963282;28;20560;-79
2021/10/31 12:47:25;;;;;;;2.93;2.63;;;;;;;;;;4969560;28;20468;-79
2021/10/31 12:50:06;;;;;;;2.90;2.60;;;;;;;;;;4967486;28;20602;-78
2021/10/31 12:52:34;;;;;;;4.13;2.70;;;;;;;;;;4943126;28;20496;-80
2021/10/31 12:55:02;;;;;;;4.77;2.80;;;;;;;;;;4954788;28;20453;-78
2021/10/31 12:57:30;;;;;;;2.97;2.67;;;;;;;;;;4935754;29;20424;-79
2021/10/31 13:00:01;;;;;;;2.70;2.50;;;;;;;;;;4967188;28;20491;-82
2021/10/31 13:02:29;;;;;;;3.40;2.90;;;;;;;;;;4972477;28;20539;-80
2021/10/31 13:04:59;;;;;;;2.70;2.50;;;;;;;;;;4960306;28;20444;-78
2021/10/31 13:07:41;;;;;;;3.60;2.73;;;;;;;;;;4960229;28;20824;-80
2021/10/31 13:10:09;;;;;;;2.57;2.37;;;;;;;;;;4944135;28;20513;-79
2021/10/31 13:12:37;;;;;;;2.80;2.60;;;;;;;;;;4968232;28;20817;-77
2021/10/31 13:15:05;;;;;;;3.27;2.30;;;;;;;;;;4969894;28;20441;-81
2021/10/31 13:17:34;;;;;;;3.67;2.60;;;;;;;;;;4954831;28;20457;-81
2021/10/31 13:20:09;;;;;;;3.30;2.80;;;;;;;;;;4970006;28;20517;-79
2021/10/31 13:22:37;;;;;;;4.60;2.40;;;;;;;;;;4968597;28;20454;-81
2021/10/31 13:25:05;;;;;;;2.90;2.40;;;;;;;;;;4959911;28;20486;-79
2021/10/31 13:27:32;;;;;;;3.10;2.53;;;;;;;;;;4961044;28;20435;-82
2021/10/31 13:30:00;;;;;;;2.70;2.13;;;;;;;;;;4967346;28;20489;-80
2021/10/31 13:32:28;;;;;;;2.60;2.10;;;;;;;;;;4971320;28;20489;-80
2021/10/31 13:34:56;;;;;;;3.10;2.40;;;;;;;;;;4946422;28;20481;-78
2021/10/31 13:37:25;;;;;;;2.30;2.10;;;;;;;;;;4970102;28;20468;-76
2021/10/31 13:39:56;;;;;;;2.60;2.37;;;;;;;;;;4944807;28;20448;-83
2021/10/31 13:42:27;;;;;;;3.00;2.67;;;;;;;;;;4958656;28;20984;-81
2021/10/31 13:44:55;;;;;;;3.20;2.70;;;;;;;;;;4968317;28;20859;-79
2021/10/31 13:47:38;;;;;;;2.93;2.27;;;;;;;;;;4969734;28;20451;-80
2021/10/31 13:50:07;;;;;;;2.37;2.17;;;;;;;;;;4951012;28;20471;-79
2021/10/31 13:52:36;;;;;;;3.60;3.13;;;;;;;;;;4946149;28;20464;-79
2021/10/31 13:55:07;;;;;;;2.73;2.50;;;;;;;;;;4939452;28;20472;-79
2021/10/31 13:57:36;;;;;;;3.40;2.47;;;;;;;;;;4945763;29;20991;-81
2021/10/31 14:00:04;;;;;;;2.60;2.40;;;;;;;;;;4952347;28;20883;-81
2021/10/31 14:02:33;;;;;;;3.20;2.27;;;;;;;;;;4947288;29;20439;-83
2021/10/31 14:05:07;;;;;;;3.60;2.63;;;;;;;;;;4938966;29;20494;-81
2021/10/31 14:07:36;;;;;;;2.60;2.40;;;;;;;;;;4940772;28;20606;-77
2021/10/31 14:10:04;;;;;;;2.40;2.20;;;;;;;;;;4950846;29;20444;-79
2021/10/31 14:12:32;;;;;;;2.53;2.20;;;;;;;;;;4950474;29;20628;-85
2021/10/31 14:15:05;;;;;;;9.13;2.33;;;;;;;;;;4950817;29;20444;-81
2021/10/31 14:17:33;;;;;;;3.00;2.60;;;;;;;;;;4943361;29;20419;-79
2021/10/31 14:20:01;;;;;;;5.40;2.37;;;;;;;;;;4940228;29;20442;-81
2021/10/31 14:22:30;;;;;;;2.40;2.03;;;;;;;;;;4944362;28;20479;-80
2021/10/31 14:25:00;;;;;;;2.30;2.10;;;;;;;;;;4951000;29;20423;-81
2021/10/31 14:27:28;;;;;;;2.23;2.03;;;;;;;;;;4945427;28;20439;-78
2021/10/31 14:30:12;;;;;;;1.87;1.73;;;;;;;;;;4952487;29;20529;-83
2021/10/31 14:32:48;;;;;;;2.40;1.90;;;;;;;;;;4936385;28;20514;-81
2021/10/31 14:37:41;;;;;;;2.53;2.30;;;;;;;;;;4945968;29;20411;-80
2021/10/31 14:40:23;;;;;;;2.20;2.00;;;;;;;;;;4943555;29;20831;-77
2021/10/31 14:42:52;;;;;;;5.80;2.00;;;;;;;;;;4935039;29;20431;-80
2021/10/31 14:45:29;;;;;;;2.20;1.87;;;;;;;;;;4939536;28;20499;-80
2021/10/31 14:47:56;;;;;;;2.73;2.53;;;;;;;;;;4952115;28;20464;-80
2021/10/31 14:50:23;;;;;;;2.20;2.00;;;;;;;;;;4966172;28;20471;-77
2021/10/31 14:52:50;;;;;;;1.80;1.70;;;;;;;;;;4975280;28;20817;-78
2021/10/31 14:55:20;;;;;;;1.87;1.70;;;;;;;;;;4977301;28;20423;-79
2021/10/31 14:57:50;;;;;;;2.30;2.10;;;;;;;;;;4969695;28;20436;-80
2021/10/31 15:00:20;;;;;;;2.27;2.07;;;;;;;;;;4961806;28;20930;-80
2021/10/31 15:02:48;;;;;;;2.50;2.30;;;;;;;;;;4960431;28;20811;-81
2021/10/31 15:05:16;;;;;;;3.23;1.87;;;;;;;;;;4965005;28;20790;-79